createdAt,value
2023-04-22T00:00:55.610Z,55.2693
2023-04-22T00:01:58.539Z,60.1993
2023-04-22T00:03:01.597Z,59.3384
2023-04-22T00:04:04.818Z,60.5768
2023-04-22T00:05:07.474Z,62.1227
2023-04-22T00:06:10.380Z,58.5585
2023-04-22T00:07:13.325Z,60.4588
2023-04-22T00:08:16.282Z,57.9382
2023-04-22T00:09:19.205Z,58.6480
2023-04-22T00:10:22.173Z,64.2187
2023-04-22T00:11:25.104Z,62.4114
2023-04-22T00:12:28.064Z,62.1863
2023-04-22T00:13:31.004Z,66.3041
2023-04-22T00:14:33.976Z,64.6789
2023-04-22T00:15:36.926Z,64.0882
2023-04-22T00:16:40.037Z,61.3921
2023-04-22T00:17:42.926Z,55.6022
2023-04-22T00:18:45.772Z,52.8196
2023-04-22T00:19:48.700Z,53.2325
2023-04-22T00:20:51.790Z,54.6102
2023-04-22T00:21:54.616Z,51.6358
2023-04-22T00:22:57.579Z,49.8480
2023-04-22T00:24:00.520Z,52.3992
2023-04-22T00:25:03.476Z,52.3125
2023-04-22T00:26:06.426Z,49.7583
2023-04-22T00:27:09.384Z,51.0421
2023-04-22T00:28:12.313Z,46.4804
2023-04-22T00:29:15.299Z,52.5988
2023-04-22T00:30:18.224Z,50.7633
2023-04-22T00:31:21.318Z,54.7679
2023-04-22T00:32:24.158Z,53.5519
2023-04-22T00:33:27.084Z,50.7819
2023-04-22T00:34:30.100Z,51.4432
2023-04-22T00:35:33.058Z,52.4184
2023-04-22T00:36:36.013Z,52.6739
2023-04-22T00:37:39.069Z,55.1098
2023-04-22T00:38:41.919Z,54.1394
2023-04-22T00:39:44.892Z,55.6430
2023-04-22T00:40:47.830Z,53.6721
2023-04-22T00:41:50.854Z,52.2279
2023-04-22T00:42:53.730Z,54.3888
2023-04-22T00:43:56.755Z,52.0713
2023-04-22T00:44:59.633Z,53.9195
2023-04-22T00:46:02.650Z,45.5089
2023-04-22T00:47:05.595Z,40.5209
2023-04-22T00:48:08.535Z,43.4722
2023-04-22T00:49:11.460Z,44.2392
2023-04-22T00:50:14.416Z,47.4053
2023-04-22T00:51:17.366Z,47.4355
2023-04-22T00:52:20.335Z,49.4058
2023-04-22T00:53:23.285Z,49.1125
2023-04-22T00:54:26.212Z,51.3373
2023-04-22T00:55:29.177Z,53.6382
2023-04-22T00:56:32.158Z,54.4371
2023-04-22T00:57:35.086Z,48.7355
2023-04-22T00:58:38.056Z,53.5058
2023-04-22T00:59:41.396Z,53.6357
2023-04-22T01:00:44.000Z,52.6094
2023-04-22T01:01:46.988Z,46.5828
2023-04-22T01:02:49.992Z,50.3397
2023-04-22T01:03:53.219Z,55.2008
2023-04-22T01:04:55.770Z,51.6999
2023-04-22T01:05:58.761Z,53.5939
2023-04-22T01:07:01.762Z,54.2337
2023-04-22T01:08:04.712Z,48.0334
2023-04-22T01:09:07.576Z,46.3511
2023-04-22T01:10:10.543Z,44.0571
2023-04-22T01:11:13.500Z,45.7990
2023-04-22T01:12:16.434Z,49.2238
2023-04-22T01:13:19.381Z,48.5579
2023-04-22T01:14:22.370Z,45.5369
2023-04-22T01:15:25.304Z,42.9824
2023-04-22T01:16:28.306Z,44.8753
2023-04-22T01:17:31.224Z,42.5169
2023-04-22T01:18:34.169Z,46.2853
2023-04-22T01:19:37.466Z,41.4714
2023-04-22T01:20:40.062Z,42.5645
2023-04-22T01:21:43.029Z,41.1944
2023-04-22T01:22:46.024Z,39.3385
2023-04-22T01:23:48.939Z,37.5604
2023-04-22T01:24:51.950Z,39.5823
2023-04-22T01:25:54.842Z,36.3831
2023-04-22T01:26:57.814Z,38.3414
2023-04-22T01:28:00.805Z,42.1770
2023-04-22T01:29:03.768Z,41.8797
2023-04-22T01:30:06.691Z,40.7240
2023-04-22T01:31:09.628Z,37.1664
2023-04-22T01:32:12.737Z,40.7248
2023-04-22T01:33:15.563Z,44.6454
2023-04-22T01:34:18.499Z,48.4490
2023-04-22T01:35:21.448Z,46.2799
2023-04-22T01:36:24.380Z,44.3879
2023-04-22T01:37:27.367Z,44.3252
2023-04-22T01:38:30.374Z,46.5894
2023-04-22T01:39:33.256Z,44.2325
2023-04-22T01:40:36.236Z,45.8602
2023-04-22T01:41:39.161Z,48.0710
2023-04-22T01:42:42.095Z,46.2178
2023-04-22T01:43:45.078Z,41.6327
2023-04-22T01:44:48.020Z,40.2317
2023-04-22T01:45:51.041Z,40.6516
2023-04-22T01:46:53.965Z,41.1247
2023-04-22T01:47:56.977Z,44.5139
2023-04-22T01:48:59.858Z,40.8967
2023-04-22T01:50:02.822Z,40.1102
2023-04-22T01:51:05.737Z,41.5652
2023-04-22T01:52:08.695Z,39.8025
2023-04-22T01:53:11.648Z,39.2956
2023-04-22T01:54:14.606Z,38.9304
2023-04-22T01:55:17.569Z,40.4877
2023-04-22T01:56:20.538Z,39.0007
2023-04-22T01:57:23.445Z,40.8495
2023-04-22T01:58:26.416Z,39.3255
2023-04-22T01:59:29.378Z,39.1029
2023-04-22T02:00:32.322Z,39.3908
2023-04-22T02:01:35.296Z,42.5404
2023-04-22T02:02:38.377Z,43.1141
2023-04-22T02:03:41.214Z,40.3878
2023-04-22T02:04:44.237Z,38.5249
2023-04-22T02:05:47.100Z,39.9292
2023-04-22T02:06:50.047Z,41.4175
2023-04-22T02:07:52.997Z,41.6129
2023-04-22T02:08:55.953Z,42.7724
2023-04-22T02:09:58.869Z,43.5212
2023-04-22T02:11:01.868Z,43.5236
2023-04-22T02:12:04.778Z,41.9127
2023-04-22T02:13:07.750Z,41.4487
2023-04-22T02:14:10.688Z,41.2148
2023-04-22T02:15:13.672Z,39.8905
2023-04-22T02:16:16.691Z,39.0241
2023-04-22T02:17:19.556Z,40.4164
2023-04-22T02:18:22.516Z,40.4229
2023-04-22T02:19:25.607Z,41.6051
2023-04-22T02:20:28.404Z,39.9492
2023-04-22T02:21:31.399Z,40.2871
2023-04-22T02:22:34.337Z,36.3401
2023-04-22T02:23:37.286Z,37.8795
2023-04-22T02:24:40.243Z,36.8934
2023-04-22T02:25:43.235Z,37.0964
2023-04-22T02:26:46.177Z,35.7680
2023-04-22T02:27:49.112Z,35.2983
2023-04-22T02:28:52.059Z,36.9722
2023-04-22T02:29:55.038Z,34.9969
2023-04-22T02:30:58.085Z,36.2381
2023-04-22T02:32:00.970Z,35.7357
2023-04-22T02:33:03.913Z,34.9856
2023-04-22T02:34:06.905Z,34.5846
2023-04-22T02:35:09.784Z,36.5338
2023-04-22T02:36:12.790Z,34.8971
2023-04-22T02:37:15.705Z,40.4435
2023-04-22T02:38:18.661Z,39.4911
2023-04-22T02:39:21.602Z,36.2548
2023-04-22T02:40:24.550Z,37.8992
2023-04-22T02:41:27.516Z,38.9209
2023-04-22T02:42:30.463Z,38.8675
2023-04-22T02:43:33.421Z,37.1877
2023-04-22T02:44:36.377Z,38.5496
2023-04-22T02:45:39.336Z,42.2526
2023-04-22T02:46:42.311Z,40.7577
2023-04-22T02:47:45.330Z,44.6001
2023-04-22T02:48:48.317Z,56.7048
2023-04-22T02:49:51.133Z,55.9520
2023-04-22T02:50:54.100Z,50.6303
2023-04-22T02:51:57.050Z,44.9172
2023-04-22T02:53:00.066Z,41.8920
2023-04-22T02:54:02.942Z,42.3375
2023-04-22T02:55:05.911Z,47.3709
2023-04-22T02:56:08.849Z,44.8359
2023-04-22T02:57:11.806Z,47.2285
2023-04-22T02:58:14.779Z,49.3741
2023-04-22T02:59:17.716Z,49.9246
2023-04-22T03:00:20.750Z,52.2606
2023-04-22T03:01:23.710Z,54.4685
2023-04-22T03:02:26.678Z,56.6592
2023-04-22T03:03:29.624Z,62.8848
2023-04-22T03:04:32.499Z,77.5625
2023-04-22T03:05:35.449Z,69.9582
2023-04-22T03:06:38.393Z,64.5010
2023-04-22T03:07:41.356Z,69.9240
2023-04-22T03:08:44.279Z,54.1237
2023-04-22T03:09:47.245Z,49.2197
2023-04-22T03:10:50.225Z,51.4698
2023-04-22T03:11:53.215Z,56.1457
2023-04-22T03:12:56.104Z,58.5792
2023-04-22T03:13:59.045Z,55.5391
2023-04-22T03:15:02.001Z,65.4362
2023-04-22T03:16:04.997Z,63.2354
2023-04-22T03:17:07.911Z,53.0550
2023-04-22T03:18:10.912Z,48.6827
2023-04-22T03:19:13.800Z,48.3099
2023-04-22T03:20:16.768Z,49.6258
2023-04-22T03:21:19.728Z,46.4417
2023-04-22T03:22:22.757Z,48.1413
2023-04-22T03:23:25.643Z,49.5277
2023-04-22T03:24:28.578Z,50.0544
2023-04-22T03:25:31.500Z,51.2814
2023-04-22T03:26:34.480Z,49.6564
2023-04-22T03:27:37.407Z,53.5174
2023-04-22T03:28:40.387Z,57.2112
2023-04-22T03:29:43.420Z,60.1668
2023-04-22T03:30:46.262Z,61.7727
2023-04-22T03:31:49.288Z,60.3445
2023-04-22T03:32:52.184Z,59.7093
2023-04-22T03:33:55.137Z,61.5047
2023-04-22T03:34:58.095Z,59.3536
2023-04-22T03:36:01.030Z,60.6301
2023-04-22T03:37:03.975Z,59.4219
2023-04-22T03:38:06.951Z,61.4651
2023-04-22T03:39:09.993Z,64.2595
2023-04-22T03:40:13.767Z,65.5323
2023-04-22T03:41:15.814Z,64.0667
2023-04-22T03:42:18.714Z,58.5172
2023-04-22T03:43:21.712Z,61.9990
2023-04-22T03:44:24.775Z,64.6736
2023-04-22T03:45:27.597Z,61.6444
2023-04-22T03:46:30.653Z,66.3603
2023-04-22T03:47:33.515Z,66.3411
2023-04-22T03:48:36.442Z,68.5146
2023-04-22T03:49:39.598Z,70.9351
2023-04-22T03:50:42.326Z,70.3238
2023-04-22T03:51:45.291Z,73.1674
2023-04-22T03:52:48.243Z,70.3661
2023-04-22T03:53:51.182Z,63.9645
2023-04-22T03:54:54.122Z,148.6539
2023-04-22T03:55:57.090Z,103.6032
2023-04-22T03:57:00.065Z,129.8582
2023-04-22T03:58:02.981Z,73.9495
2023-04-22T03:59:05.921Z,65.4520
2023-04-22T04:00:08.898Z,60.9634
2023-04-22T04:01:11.821Z,54.8106
2023-04-22T04:02:14.871Z,52.0006
2023-04-22T04:03:17.895Z,50.9944
2023-04-22T04:04:21.124Z,54.3913
2023-04-22T04:05:23.723Z,46.2214
2023-04-22T04:06:26.585Z,40.6010
2023-04-22T04:07:29.515Z,41.3542
2023-04-22T04:08:32.478Z,40.1100
2023-04-22T04:09:35.429Z,37.7421
2023-04-22T04:10:38.405Z,37.4758
2023-04-22T04:11:41.328Z,37.3341
2023-04-22T04:12:44.274Z,36.9323
2023-04-22T04:13:47.262Z,36.9022
2023-04-22T04:14:50.172Z,36.1044
2023-04-22T04:15:53.260Z,39.3190
2023-04-22T04:16:56.100Z,39.2206
2023-04-22T04:17:59.057Z,38.4853
2023-04-22T04:19:02.040Z,55.3462
2023-04-22T04:20:04.965Z,41.1614
2023-04-22T04:21:07.969Z,35.4172
2023-04-22T04:22:10.898Z,40.7479
2023-04-22T04:23:13.795Z,62.5506
2023-04-22T04:24:16.744Z,46.0144
2023-04-22T04:25:19.689Z,38.3491
2023-04-22T04:26:22.643Z,36.5160
2023-04-22T04:27:25.642Z,33.5043
2023-04-22T04:28:28.532Z,35.9145
2023-04-22T04:29:31.489Z,36.1798
2023-04-22T04:30:34.440Z,38.1029
2023-04-22T04:31:37.433Z,37.6386
2023-04-22T04:32:40.379Z,39.1104
2023-04-22T04:33:43.291Z,40.7115
2023-04-22T04:34:46.270Z,46.2162
2023-04-22T04:35:49.188Z,46.0706
2023-04-22T04:36:52.156Z,64.3192
2023-04-22T04:37:55.119Z,60.7018
2023-04-22T04:38:58.031Z,49.5784
2023-04-22T04:40:01.040Z,37.6222
2023-04-22T04:41:03.951Z,34.6303
2023-04-22T04:42:06.962Z,36.1812
2023-04-22T04:43:09.891Z,38.5651
2023-04-22T04:44:12.857Z,36.8607
2023-04-22T04:45:15.807Z,35.3662
2023-04-22T04:46:18.776Z,37.7333
2023-04-22T04:47:21.758Z,35.1159
2023-04-22T04:48:24.660Z,37.3807
2023-04-22T04:49:27.585Z,37.0698
2023-04-22T04:50:30.572Z,39.4936
2023-04-22T04:51:33.493Z,39.4013
2023-04-22T04:52:36.441Z,41.3157
2023-04-22T04:53:39.501Z,45.3390
2023-04-22T04:54:42.324Z,50.3090
2023-04-22T04:55:45.288Z,51.9950
2023-04-22T04:56:48.209Z,47.6802
2023-04-22T04:57:51.212Z,45.4738
2023-04-22T04:58:54.105Z,43.3873
2023-04-22T04:59:57.080Z,40.5715
2023-04-22T05:01:00.042Z,42.2788
2023-04-22T05:02:03.007Z,39.5298
2023-04-22T05:03:05.951Z,37.6525
2023-04-22T05:04:09.032Z,39.6709
2023-04-22T05:05:11.813Z,40.8301
2023-04-22T05:06:14.760Z,99.5972
2023-04-22T05:07:17.700Z,61.8135
2023-04-22T05:08:20.654Z,44.9624
2023-04-22T05:09:23.637Z,43.0952
2023-04-22T05:10:26.591Z,41.6477
2023-04-22T05:11:29.517Z,42.8300
2023-04-22T05:12:32.472Z,41.9740
2023-04-22T05:13:35.401Z,42.4366
2023-04-22T05:14:38.377Z,40.3964
2023-04-22T05:15:41.391Z,41.4035
2023-04-22T05:16:44.311Z,39.4589
2023-04-22T05:17:47.274Z,41.0135
2023-04-22T05:18:50.159Z,50.1738
2023-04-22T05:19:53.137Z,49.7087
2023-04-22T05:20:56.081Z,53.2617
2023-04-22T05:21:59.020Z,54.6436
2023-04-22T05:23:01.965Z,59.2199
2023-04-22T05:24:04.924Z,66.3632
2023-04-22T05:25:07.911Z,73.7599
2023-04-22T05:26:10.841Z,75.1211
2023-04-22T05:27:13.788Z,57.9763
2023-04-22T05:28:16.725Z,55.6599
2023-04-22T05:29:19.666Z,53.5249
2023-04-22T05:30:22.658Z,55.2914
2023-04-22T05:31:25.645Z,74.2203
2023-04-22T05:32:28.583Z,93.3312
2023-04-22T05:33:31.473Z,77.4062
2023-04-22T05:34:34.438Z,70.9667
2023-04-22T05:35:37.393Z,71.8076
2023-04-22T05:36:40.335Z,68.7327
2023-04-22T05:37:43.311Z,69.5596
2023-04-22T05:38:46.244Z,71.6951
2023-04-22T05:39:49.187Z,78.7926
2023-04-22T05:40:52.164Z,83.0065
2023-04-22T05:41:55.077Z,81.9220
2023-04-22T05:42:58.041Z,77.4479
2023-04-22T05:44:01.085Z,124.7711
2023-04-22T05:45:03.948Z,128.5410
2023-04-22T05:46:06.920Z,98.6172
2023-04-22T05:47:09.847Z,88.6434
2023-04-22T05:48:12.777Z,88.8212
2023-04-22T05:49:15.733Z,81.8387
2023-04-22T05:50:19.221Z,75.6383
2023-04-22T05:51:21.691Z,82.6117
2023-04-22T05:52:24.569Z,83.1619
2023-04-22T05:53:27.640Z,77.1539
2023-04-22T05:54:30.478Z,77.6603
2023-04-22T05:55:33.437Z,75.7532
2023-04-22T05:56:36.372Z,73.7392
2023-04-22T05:57:39.363Z,71.7402
2023-04-22T05:58:42.271Z,78.3118
2023-04-22T05:59:45.230Z,78.2289
2023-04-22T06:00:48.191Z,75.3382
2023-04-22T06:01:51.202Z,73.1448
2023-04-22T06:02:54.375Z,72.1393
2023-04-22T06:03:57.313Z,69.2099
2023-04-22T06:05:00.288Z,71.4681
2023-04-22T06:06:03.120Z,66.9036
2023-04-22T06:07:05.892Z,65.9305
2023-04-22T06:08:08.867Z,66.0308
2023-04-22T06:09:11.829Z,68.3287
2023-04-22T06:10:14.731Z,68.3255
2023-04-22T06:11:17.680Z,68.7789
2023-04-22T06:12:20.645Z,64.3248
2023-04-22T06:13:23.602Z,66.9630
2023-04-22T06:14:26.555Z,64.6120
2023-04-22T06:15:29.716Z,63.1325
2023-04-22T06:16:32.514Z,59.4699
2023-04-22T06:17:35.510Z,65.9225
2023-04-22T06:18:38.707Z,63.9624
2023-04-22T06:19:41.702Z,65.3416
2023-04-22T06:20:44.290Z,65.7962
2023-04-22T06:21:47.252Z,63.5532
2023-04-22T06:22:50.206Z,67.1939
2023-04-22T06:23:53.178Z,68.7228
2023-04-22T06:24:56.111Z,68.5303
2023-04-22T06:25:59.073Z,70.3972
2023-04-22T06:27:02.027Z,67.5874
2023-04-22T06:28:04.977Z,67.5232
2023-04-22T06:29:07.961Z,62.9176
2023-04-22T06:30:10.886Z,64.8180
2023-04-22T06:31:13.854Z,60.8828
2023-04-22T06:32:16.794Z,60.0441
2023-04-22T06:33:19.782Z,63.3201
2023-04-22T06:34:22.697Z,65.4531
2023-04-22T06:35:25.906Z,65.7222
2023-04-22T06:36:30.620Z,66.0863
2023-04-22T06:37:31.552Z,66.3430
2023-04-22T06:38:34.526Z,63.0263
2023-04-22T06:39:37.823Z,66.3294
2023-04-22T06:40:40.422Z,67.4314
2023-04-22T06:41:43.384Z,67.7959
2023-04-22T06:42:46.328Z,64.6640
2023-04-22T06:43:49.358Z,62.0233
2023-04-22T06:44:52.300Z,64.8715
2023-04-22T06:45:55.217Z,63.8006
2023-04-22T06:46:58.512Z,64.3072
2023-04-22T06:48:01.213Z,68.8098
2023-04-22T06:49:04.106Z,60.5606
2023-04-22T06:50:07.025Z,61.9788
2023-04-22T06:51:10.034Z,62.6967
2023-04-22T06:52:12.934Z,63.8228
2023-04-22T06:53:15.952Z,61.0220
2023-04-22T06:54:19.183Z,62.0119
2023-04-22T06:55:21.838Z,59.5894
2023-04-22T06:56:24.774Z,58.1215
2023-04-22T06:57:27.725Z,57.3202
2023-04-22T06:58:30.696Z,59.3219
2023-04-22T06:59:33.680Z,55.1827
2023-04-22T07:00:36.584Z,52.2118
2023-04-22T07:01:39.554Z,51.3826
2023-04-22T07:02:42.610Z,54.4651
2023-04-22T07:03:45.538Z,52.6446
2023-04-22T07:04:48.419Z,52.3724
2023-04-22T07:05:51.346Z,52.3806
2023-04-22T07:06:54.313Z,50.7841
2023-04-22T07:07:57.245Z,49.5653
2023-04-22T07:09:00.225Z,48.7978
2023-04-22T07:10:03.189Z,46.3886
2023-04-22T07:11:06.109Z,47.7391
2023-04-22T07:12:09.054Z,47.7631
2023-04-22T07:13:12.190Z,47.6806
2023-04-22T07:14:14.953Z,49.4185
2023-04-22T07:15:17.912Z,46.2745
2023-04-22T07:16:20.904Z,47.0104
2023-04-22T07:17:23.888Z,50.0031
2023-04-22T07:18:26.765Z,46.6026
2023-04-22T07:19:29.953Z,45.9883
2023-04-22T07:20:32.738Z,43.2733
2023-04-22T07:21:35.627Z,45.0024
2023-04-22T07:22:38.621Z,43.1618
2023-04-22T07:23:41.531Z,43.1602
2023-04-22T07:24:44.475Z,43.4839
2023-04-22T07:25:47.417Z,44.9971
2023-04-22T07:26:50.381Z,40.8663
2023-04-22T07:27:53.331Z,39.8913
2023-04-22T07:28:56.263Z,42.5822
2023-04-22T07:29:59.249Z,39.3041
2023-04-22T07:31:02.160Z,43.4183
2023-04-22T07:32:05.211Z,42.6860
2023-04-22T07:33:08.060Z,43.3386
2023-04-22T07:34:11.045Z,38.9944
2023-04-22T07:35:13.937Z,42.3743
2023-04-22T07:36:16.988Z,41.7015
2023-04-22T07:37:19.831Z,39.3859
2023-04-22T07:38:22.848Z,39.2508
2023-04-22T07:39:25.765Z,40.6211
2023-04-22T07:40:28.671Z,41.6416
2023-04-22T07:41:31.579Z,41.4355
2023-04-22T07:42:34.550Z,42.4373
2023-04-22T07:43:37.478Z,51.3760
2023-04-22T07:44:40.522Z,45.5086
2023-04-22T07:45:43.432Z,46.0241
2023-04-22T07:46:46.307Z,47.3504
2023-04-22T07:47:49.294Z,48.6994
2023-04-22T07:48:52.200Z,48.2602
2023-04-22T07:49:55.150Z,49.0021
2023-04-22T07:50:58.152Z,49.3336
2023-04-22T07:52:01.091Z,50.9136
2023-04-22T07:53:04.016Z,51.5190
2023-04-22T07:54:06.969Z,81.9856
2023-04-22T07:55:09.896Z,73.2448
2023-04-22T07:56:12.828Z,56.1191
2023-04-22T07:57:15.782Z,50.0887
2023-04-22T07:58:18.783Z,47.8423
2023-04-22T07:59:21.694Z,53.1950
2023-04-22T08:00:24.667Z,50.6207
2023-04-22T08:01:27.563Z,48.9792
2023-04-22T08:02:30.625Z,48.1846
2023-04-22T08:03:33.541Z,52.8973
2023-04-22T08:04:36.441Z,53.8336
2023-04-22T08:05:39.354Z,51.4010
2023-04-22T08:06:42.311Z,51.0247
2023-04-22T08:07:45.309Z,52.3990
2023-04-22T08:08:48.179Z,49.1800
2023-04-22T08:09:51.150Z,49.2611
2023-04-22T08:10:54.098Z,55.3123
2023-04-22T08:11:57.034Z,52.3548
2023-04-22T08:12:59.993Z,54.1284
2023-04-22T08:14:02.939Z,54.0723
2023-04-22T08:15:05.860Z,54.4948
2023-04-22T08:16:08.854Z,53.5680
2023-04-22T08:17:11.833Z,85.0008
2023-04-22T08:18:14.807Z,81.6630
2023-04-22T08:19:17.690Z,223.9844
2023-04-22T08:20:20.643Z,66.0943
2023-04-22T08:21:23.552Z,56.8133
2023-04-22T08:22:26.484Z,59.3313
2023-04-22T08:23:29.412Z,57.9797
2023-04-22T08:24:32.362Z,55.2778
2023-04-22T08:25:35.291Z,52.0067
2023-04-22T08:26:38.293Z,52.6189
2023-04-22T08:27:41.240Z,49.7956
2023-04-22T08:28:44.125Z,56.2739
2023-04-22T08:29:47.062Z,58.7967
2023-04-22T08:30:50.020Z,56.1655
2023-04-22T08:31:53.006Z,63.8391
2023-04-22T08:32:55.945Z,62.7132
2023-04-22T08:33:58.865Z,67.0002
2023-04-22T08:35:05.297Z,69.2835
2023-04-22T08:36:04.740Z,55.8133
2023-04-22T08:37:07.667Z,57.6197
2023-04-22T08:38:10.612Z,50.5530
2023-04-22T08:39:13.568Z,50.7588
2023-04-22T08:40:16.505Z,50.8484
2023-04-22T08:41:19.432Z,51.7137
2023-04-22T08:42:22.381Z,51.6188
2023-04-22T08:43:25.320Z,162.1741
2023-04-22T08:44:28.255Z,104.7444
2023-04-22T08:45:31.233Z,61.8151
2023-04-22T08:46:34.196Z,88.4340
2023-04-22T08:47:37.141Z,63.1903
2023-04-22T08:48:40.059Z,60.4017
2023-04-22T08:49:42.979Z,54.7919
2023-04-22T08:50:46.037Z,53.5523
2023-04-22T08:51:48.942Z,53.4633
2023-04-22T08:52:51.915Z,53.9362
2023-04-22T08:53:54.825Z,53.4385
2023-04-22T08:54:57.834Z,51.4409
2023-04-22T08:56:00.718Z,51.3980
2023-04-22T08:57:03.664Z,144.6642
2023-04-22T08:58:06.657Z,75.2478
2023-04-22T08:59:09.540Z,94.5477
2023-04-22T09:00:12.473Z,75.0171
2023-04-22T09:01:15.430Z,57.0012
2023-04-22T09:02:18.397Z,49.3932
2023-04-22T09:03:21.338Z,52.4194
2023-04-22T09:04:24.366Z,50.7726
2023-04-22T09:05:28.032Z,49.6010
2023-04-22T09:06:30.133Z,49.5660
2023-04-22T09:07:33.061Z,50.9333
2023-04-22T09:08:36.024Z,48.0208
2023-04-22T09:09:39.391Z,44.2307
2023-04-22T09:10:42.003Z,45.6537
2023-04-22T09:11:44.856Z,48.6412
2023-04-22T09:12:47.821Z,48.0995
2023-04-22T09:13:50.797Z,46.0138
2023-04-22T09:14:53.703Z,45.7964
2023-04-22T09:15:59.346Z,45.7939
2023-04-22T09:16:59.588Z,44.7059
2023-04-22T09:18:02.587Z,44.2675
2023-04-22T09:19:05.569Z,47.8204
2023-04-22T09:20:08.589Z,44.3935
2023-04-22T09:21:11.391Z,44.6164
2023-04-22T09:22:14.344Z,40.6956
2023-04-22T09:23:17.336Z,41.0432
2023-04-22T09:24:20.287Z,45.2560
2023-04-22T09:25:23.240Z,55.5381
2023-04-22T09:26:26.310Z,49.5210
2023-04-22T09:27:29.106Z,64.7521
2023-04-22T09:28:32.137Z,55.0441
2023-04-22T09:29:35.029Z,52.3872
2023-04-22T09:30:38.040Z,46.8293
2023-04-22T09:31:40.997Z,67.4158
2023-04-22T09:32:43.898Z,83.8188
2023-04-22T09:33:48.333Z,63.3573
2023-04-22T09:34:49.757Z,62.5436
2023-04-22T09:35:52.697Z,64.2009
2023-04-22T09:36:55.647Z,59.0842
2023-04-22T09:37:58.611Z,58.3565
2023-04-22T09:39:01.587Z,58.9408
2023-04-22T09:40:04.486Z,61.0707
2023-04-22T09:41:07.464Z,57.8902
2023-04-22T09:42:10.423Z,60.4103
2023-04-22T09:43:13.332Z,56.3118
2023-04-22T09:44:16.301Z,54.8693
2023-04-22T09:45:19.218Z,50.8160
2023-04-22T09:46:22.226Z,47.8438
2023-04-22T09:47:25.281Z,48.6956
2023-04-22T09:48:28.051Z,56.1083
2023-04-22T09:49:31.017Z,52.1110
2023-04-22T09:50:33.990Z,57.6190
2023-04-22T09:51:36.892Z,64.2199
2023-04-22T09:52:39.823Z,82.4698
2023-04-22T09:53:42.766Z,83.4996
2023-04-22T09:54:45.721Z,71.7453
2023-04-22T09:55:48.654Z,72.2577
2023-04-22T09:56:51.592Z,59.0293
2023-04-22T09:57:54.539Z,57.7608
2023-04-22T09:58:57.481Z,57.5164
2023-04-22T10:00:00.444Z,54.0368
2023-04-22T10:01:03.439Z,52.6902
2023-04-22T10:02:06.372Z,54.8534
2023-04-22T10:03:10.727Z,54.0893
2023-04-22T10:04:12.289Z,55.6567
2023-04-22T10:05:15.134Z,207.0930
2023-04-22T10:06:18.200Z,110.6575
2023-04-22T10:07:21.013Z,87.3081
2023-04-22T10:08:24.144Z,73.2995
2023-04-22T10:09:26.950Z,56.8409
2023-04-22T10:10:29.853Z,70.3859
2023-04-22T10:11:32.800Z,114.2231
2023-04-22T10:12:36.190Z,161.6681
2023-04-22T10:13:38.721Z,157.9743
2023-04-22T10:14:41.660Z,77.5720
2023-04-22T10:15:44.716Z,47.1624
2023-04-22T10:16:47.833Z,38.5286
2023-04-22T10:17:50.728Z,31.6117
2023-04-22T10:18:53.527Z,26.1009
2023-04-22T10:19:56.451Z,30.9188
2023-04-22T10:20:59.425Z,37.0248
2023-04-22T10:22:02.394Z,34.9498
2023-04-22T10:23:05.329Z,37.4745
2023-04-22T10:24:08.256Z,34.6841
2023-04-22T10:25:11.217Z,33.7374
2023-04-22T10:26:14.223Z,32.3128
2023-04-22T10:27:17.215Z,30.1110
2023-04-22T10:28:20.117Z,29.6872
2023-04-22T10:29:23.091Z,29.3830
2023-04-22T10:30:26.032Z,27.9471
2023-04-22T10:31:29.115Z,28.9170
2023-04-22T10:32:31.962Z,30.2985
2023-04-22T10:33:35.077Z,27.6559
2023-04-22T10:34:37.815Z,27.2188
2023-04-22T10:35:40.760Z,27.5441
2023-04-22T10:36:43.714Z,27.4525
2023-04-22T10:37:46.672Z,23.5620
2023-04-22T10:38:49.632Z,23.3771
2023-04-22T10:39:52.558Z,23.7915
2023-04-22T10:40:55.510Z,26.5808
2023-04-22T10:41:58.487Z,27.8322
2023-04-22T10:43:01.442Z,24.5449
2023-04-22T10:44:04.371Z,27.7052
2023-04-22T10:45:07.385Z,26.2565
2023-04-22T10:46:10.317Z,26.7234
2023-04-22T10:47:13.243Z,26.5841
2023-04-22T10:48:16.216Z,27.2543
2023-04-22T10:49:19.142Z,28.8329
2023-04-22T10:50:22.163Z,28.5863
2023-04-22T10:51:25.108Z,30.0459
2023-04-22T10:52:28.015Z,30.6222
2023-04-22T10:53:30.980Z,31.4670
2023-04-22T10:54:33.932Z,32.4798
2023-04-22T10:55:36.882Z,31.4471
2023-04-22T10:56:48.436Z,30.5645
2023-04-22T10:57:42.798Z,33.5528
2023-04-22T10:58:45.898Z,34.0246
2023-04-22T10:59:50.364Z,33.3546
2023-04-22T11:00:53.872Z,33.1766
2023-04-22T11:01:54.643Z,34.0625
2023-04-22T11:02:57.612Z,31.6875
2023-04-22T11:04:00.568Z,35.4126
2023-04-22T11:05:03.453Z,37.3131
2023-04-22T11:06:06.441Z,38.2118
2023-04-22T11:07:10.098Z,36.7136
2023-04-22T11:08:12.282Z,35.7203
2023-04-22T11:09:15.266Z,36.4661
2023-04-22T11:10:18.188Z,35.4819
2023-04-22T11:11:21.132Z,38.0140
2023-04-22T11:12:24.108Z,35.6802
2023-04-22T11:13:27.041Z,36.0862
2023-04-22T11:14:30.014Z,36.8021
2023-04-22T11:15:32.928Z,39.7862
2023-04-22T11:16:35.951Z,39.8506
2023-04-22T11:17:38.834Z,39.4440
2023-04-22T11:18:41.780Z,40.1814
2023-04-22T11:19:44.732Z,42.4452
2023-04-22T11:20:47.668Z,42.3683
2023-04-22T11:21:51.234Z,36.7828
2023-04-22T11:22:53.626Z,34.3143
2023-04-22T11:23:56.622Z,34.9639
2023-04-22T11:24:59.463Z,38.0266
2023-04-22T11:26:02.429Z,37.4303
2023-04-22T11:27:05.382Z,39.9595
2023-04-22T11:28:08.330Z,40.4047
2023-04-22T11:29:11.255Z,39.6963
2023-04-22T11:30:14.293Z,41.0343
2023-04-22T11:31:17.195Z,40.1070
2023-04-22T11:32:20.131Z,39.7152
2023-04-22T11:33:23.106Z,42.7544
2023-04-22T11:34:26.001Z,40.9199
2023-04-22T11:35:28.984Z,38.5604
2023-04-22T11:36:31.909Z,38.5674
2023-04-22T11:37:34.958Z,39.9375
2023-04-22T11:38:37.821Z,36.0050
2023-04-22T11:39:56.018Z,34.0907
2023-04-22T11:40:46.225Z,34.2016
2023-04-22T11:41:46.662Z,35.1118
2023-04-22T11:42:49.652Z,36.0046
2023-04-22T11:43:52.610Z,33.9965
2023-04-22T11:44:55.514Z,33.5908
2023-04-22T11:45:58.579Z,29.4203
2023-04-22T11:47:01.435Z,30.4037
2023-04-22T11:48:04.386Z,27.8424
2023-04-22T11:49:07.332Z,26.5006
2023-04-22T11:50:10.298Z,27.0727
2023-04-22T11:51:13.286Z,28.9928
2023-04-22T11:52:16.196Z,27.8511
2023-04-22T11:53:19.464Z,25.6080
2023-04-22T11:54:22.109Z,28.3596
2023-04-22T11:55:25.065Z,25.0204
2023-04-22T11:56:28.037Z,25.2094
2023-04-22T11:57:31.780Z,24.2295
2023-04-22T11:58:33.956Z,23.5625
2023-04-22T11:59:36.983Z,23.8760
2023-04-22T12:00:39.851Z,25.2382
2023-04-22T12:01:42.810Z,25.4107
2023-04-22T12:02:46.081Z,23.5618
2023-04-22T12:03:48.885Z,24.1467
2023-04-22T12:04:51.732Z,25.6078
2023-04-22T12:05:54.680Z,23.1604
2023-04-22T12:06:57.657Z,23.4459
2023-04-22T12:08:00.569Z,23.6460
2023-04-22T12:09:03.498Z,22.2456
2023-04-22T12:10:06.459Z,20.8769
2023-04-22T12:11:09.407Z,22.5219
2023-04-22T12:12:12.374Z,24.8202
2023-04-22T12:13:15.360Z,25.8421
2023-04-22T12:14:18.306Z,27.0236
2023-04-22T12:15:21.269Z,25.2440
2023-04-22T12:16:24.297Z,24.0471
2023-04-22T12:17:27.236Z,25.5580
2023-04-22T12:18:30.196Z,24.4755
2023-04-22T12:19:33.085Z,26.8303
2023-04-22T12:20:36.130Z,24.3203
2023-04-22T12:21:39.013Z,24.2225
2023-04-22T12:22:42.010Z,24.9102
2023-04-22T12:23:45.016Z,23.7743
2023-04-22T12:24:47.907Z,25.6573
2023-04-22T12:25:50.875Z,26.1197
2023-04-22T12:26:53.826Z,23.5307
2023-04-22T12:27:56.782Z,21.4667
2023-04-22T12:28:59.773Z,21.8968
2023-04-22T12:30:02.703Z,22.8892
2023-04-22T12:31:05.762Z,22.0386
2023-04-22T12:32:08.624Z,22.5410
2023-04-22T12:33:11.592Z,25.1507
2023-04-22T12:34:14.537Z,23.5880
2023-04-22T12:35:17.537Z,24.5127
2023-04-22T12:36:20.481Z,27.0368
2023-04-22T12:37:23.420Z,28.2640
2023-04-22T12:38:26.396Z,26.1071
2023-04-22T12:39:29.332Z,26.2265
2023-04-22T12:40:32.296Z,27.6076
2023-04-22T12:41:35.259Z,25.6720